Boone County Airport Harrison US
ICAO: KHRO
IATA: HRO
Category: Medium
Scheduled Services: Yes

Elevation: 1365 ft
TransAlt. 18000 ft.

Airport Communications:
ASOS:121.125
MEMPHIS CNTR:126.85
JONESBORO RDO:122.45
CTAF/UNICOM:123

KHRO Zoom In..

Runways:

(A) RW 18 length 6161 ft width 150 ft
---- / hdg 182

(B) RW 36 length 6161 ft width 150 ft
ILS 111.70 / hdg 2

Location; KHRO
Day. 21 / Time. 06.01 Zulu
* Altimeter: 29.94
* Temperature: 22° c. 71.6°f.
* Wind from: 180° Speed 09 kn.
Dewpoint: 18° c.
Visibility: 10 Statute Miles.
Clouds: Scattered 2800 ft.
Clouds: Scattered 8500 ft.
Clouds: Broken 11000 ft.
Conditions: Thunderstorm.

KHRO 210601Z AUTO 18009KT 10SM TS SCT028 SCT085 BKN110 22/18 A2994 RMK AO2 LTG DSNT ALQDS RAE0559 PRESFR P0000 T02220178


Wind From 180°
Speed 09 kn.

 
 
jpsmedia.com for Web Design worldairports.se 2018   terms of use